sensor_id;sensor_type;location;lat;lon;timestamp;P1;durP1;ratioP1;P2;durP2;ratioP2
21769;SDS011;11046;49.558;8.674;2023-01-10T00:00:51;4.07;;;2.27;;
21769;SDS011;11046;49.558;8.674;2023-01-10T00:03:52;6.13;;;2.70;;
21769;SDS011;11046;49.558;8.674;2023-01-10T00:06:53;6.80;;;2.73;;
21769;SDS011;11046;49.558;8.674;2023-01-10T00:09:57;4.83;;;2.57;;
21769;SDS011;11046;49.558;8.674;2023-01-10T00:12:58;3.97;;;2.37;;
21769;SDS011;11046;49.558;8.674;2023-01-10T00:16:17;7.87;;;2.20;;
21769;SDS011;11046;49.558;8.674;2023-01-10T00:19:18;5.43;;;2.50;;
21769;SDS011;11046;49.558;8.674;2023-01-10T00:22:18;8.67;;;2.77;;
21769;SDS011;11046;49.558;8.674;2023-01-10T00:25:22;6.50;;;2.87;;
21769;SDS011;11046;49.558;8.674;2023-01-10T00:28:23;5.33;;;3.13;;
21769;SDS011;11046;49.558;8.674;2023-01-10T00:31:24;4.90;;;2.87;;
21769;SDS011;11046;49.558;8.674;2023-01-10T00:34:24;5.07;;;3.00;;
21769;SDS011;11046;49.558;8.674;2023-01-10T00:37:26;12.07;;;4.70;;
21769;SDS011;11046;49.558;8.674;2023-01-10T00:40:29;9.30;;;3.33;;
21769;SDS011;11046;49.558;8.674;2023-01-10T00:43:33;8.03;;;3.30;;
21769;SDS011;11046;49.558;8.674;2023-01-10T00:46:54;7.43;;;3.60;;
21769;SDS011;11046;49.558;8.674;2023-01-10T00:49:55;7.33;;;3.27;;
21769;SDS011;11046;49.558;8.674;2023-01-10T00:52:56;5.97;;;2.93;;
21769;SDS011;11046;49.558;8.674;2023-01-10T00:55:57;5.27;;;3.10;;
21769;SDS011;11046;49.558;8.674;2023-01-10T00:58:57;4.80;;;2.27;;
21769;SDS011;11046;49.558;8.674;2023-01-10T01:01:58;3.40;;;2.20;;
21769;SDS011;11046;49.558;8.674;2023-01-10T01:04:59;3.17;;;1.60;;
21769;SDS011;11046;49.558;8.674;2023-01-10T01:08:00;2.30;;;1.40;;
21769;SDS011;11046;49.558;8.674;2023-01-10T01:11:06;3.17;;;1.10;;
21769;SDS011;11046;49.558;8.674;2023-01-10T01:14:06;1.50;;;1.10;;
21769;SDS011;11046;49.558;8.674;2023-01-10T01:17:07;2.50;;;1.30;;
21769;SDS011;11046;49.558;8.674;2023-01-10T01:20:08;1.57;;;1.10;;
21769;SDS011;11046;49.558;8.674;2023-01-10T01:23:12;1.20;;;1.00;;
21769;SDS011;11046;49.558;8.674;2023-01-10T01:26:14;1.87;;;0.80;;
21769;SDS011;11046;49.558;8.674;2023-01-10T01:29:18;1.93;;;0.90;;
21769;SDS011;11046;49.558;8.674;2023-01-10T01:32:18;2.37;;;0.70;;
21769;SDS011;11046;49.558;8.674;2023-01-10T01:35:20;1.57;;;1.10;;
21769;SDS011;11046;49.558;8.674;2023-01-10T01:38:21;1.37;;;0.80;;
21769;SDS011;11046;49.558;8.674;2023-01-10T01:41:25;2.30;;;0.70;;
21769;SDS011;11046;49.558;8.674;2023-01-10T01:45:02;0.80;;;0.67;;
21769;SDS011;11046;49.558;8.674;2023-01-10T01:48:13;1.40;;;0.80;;
21769;SDS011;11046;49.558;8.674;2023-01-10T01:51:55;0.97;;;0.70;;
21769;SDS011;11046;49.558;8.674;2023-01-10T01:55:00;1.83;;;0.80;;
21769;SDS011;11046;49.558;8.674;2023-01-10T01:58:08;1.50;;;0.93;;
21769;SDS011;11046;49.558;8.674;2023-01-10T02:01:18;2.20;;;0.80;;
21769;SDS011;11046;49.558;8.674;2023-01-10T02:04:24;1.83;;;0.93;;
21769;SDS011;11046;49.558;8.674;2023-01-10T02:07:30;2.37;;;1.00;;
21769;SDS011;11046;49.558;8.674;2023-01-10T02:10:52;4.10;;;1.17;;
21769;SDS011;11046;49.558;8.674;2023-01-10T02:14:09;2.67;;;1.63;;
21769;SDS011;11046;49.558;8.674;2023-01-10T02:17:11;1.83;;;0.93;;
21769;SDS011;11046;49.558;8.674;2023-01-10T02:20:12;3.80;;;1.13;;
21769;SDS011;11046;49.558;8.674;2023-01-10T02:26:42;1.13;;;0.90;;
21769;SDS011;11046;49.558;8.674;2023-01-10T02:30:14;5.83;;;1.60;;
21769;SDS011;11046;49.558;8.674;2023-01-10T02:40:31;3.07;;;1.00;;
21769;SDS011;11046;49.558;8.674;2023-01-10T02:43:50;4.30;;;1.80;;
21769;SDS011;11046;49.558;8.674;2023-01-10T02:47:00;5.23;;;1.80;;
21769;SDS011;11046;49.558;8.674;2023-01-10T02:53:40;3.77;;;1.73;;
21769;SDS011;11046;49.558;8.674;2023-01-10T03:00:34;4.83;;;1.70;;
21769;SDS011;11046;49.558;8.674;2023-01-10T03:03:59;4.53;;;1.60;;
21769;SDS011;11046;49.558;8.674;2023-01-10T03:07:12;3.33;;;1.50;;
21769;SDS011;11046;49.558;8.674;2023-01-10T03:13:44;3.40;;;1.80;;
21769;SDS011;11046;49.558;8.674;2023-01-10T03:16:57;2.63;;;1.60;;
21769;SDS011;11046;49.558;8.674;2023-01-10T03:20:03;3.97;;;1.50;;
21769;SDS011;11046;49.558;8.674;2023-01-10T03:23:06;2.23;;;1.40;;
21769;SDS011;11046;49.558;8.674;2023-01-10T03:26:08;4.90;;;1.50;;
21769;SDS011;11046;49.558;8.674;2023-01-10T03:29:15;4.43;;;1.30;;
21769;SDS011;11046;49.558;8.674;2023-01-10T03:32:24;1.87;;;1.30;;
21769;SDS011;11046;49.558;8.674;2023-01-10T03:35:33;2.77;;;1.20;;
21769;SDS011;11046;49.558;8.674;2023-01-10T03:39:01;1.77;;;1.20;;
21769;SDS011;11046;49.558;8.674;2023-01-10T03:45:20;5.33;;;1.37;;
21769;SDS011;11046;49.558;8.674;2023-01-10T03:48:30;4.17;;;1.60;;
21769;SDS011;11046;49.558;8.674;2023-01-10T03:51:35;4.90;;;1.73;;
21769;SDS011;11046;49.558;8.674;2023-01-10T03:54:38;3.27;;;1.50;;
21769;SDS011;11046;49.558;8.674;2023-01-10T03:57:41;8.00;;;2.67;;
21769;SDS011;11046;49.558;8.674;2023-01-10T04:00:44;7.33;;;2.23;;
21769;SDS011;11046;49.558;8.674;2023-01-10T04:03:45;10.13;;;2.63;;
21769;SDS011;11046;49.558;8.674;2023-01-10T04:06:46;7.13;;;2.40;;
21769;SDS011;11046;49.558;8.674;2023-01-10T04:09:49;9.80;;;2.50;;
21769;SDS011;11046;49.558;8.674;2023-01-10T04:12:50;6.03;;;3.13;;
21769;SDS011;11046;49.558;8.674;2023-01-10T04:15:54;8.13;;;2.30;;
21769;SDS011;11046;49.558;8.674;2023-01-10T04:18:55;13.47;;;3.60;;
21769;SDS011;11046;49.558;8.674;2023-01-10T04:21:56;9.37;;;3.60;;
21769;SDS011;11046;49.558;8.674;2023-01-10T04:24:56;10.87;;;2.90;;
21769;SDS011;11046;49.558;8.674;2023-01-10T04:27:57;10.87;;;3.07;;
21769;SDS011;11046;49.558;8.674;2023-01-10T04:30:58;9.20;;;2.50;;
21769;SDS011;11046;49.558;8.674;2023-01-10T04:33:58;6.67;;;2.30;;
21769;SDS011;11046;49.558;8.674;2023-01-10T04:36:59;9.00;;;2.57;;
21769;SDS011;11046;49.558;8.674;2023-01-10T04:39:59;8.33;;;2.60;;
21769;SDS011;11046;49.558;8.674;2023-01-10T04:43:00;6.40;;;2.77;;
21769;SDS011;11046;49.558;8.674;2023-01-10T04:46:00;6.80;;;2.77;;
21769;SDS011;11046;49.558;8.674;2023-01-10T04:49:01;9.73;;;2.63;;
21769;SDS011;11046;49.558;8.674;2023-01-10T04:52:02;9.93;;;3.30;;
21769;SDS011;11046;49.558;8.674;2023-01-10T04:55:02;10.17;;;3.07;;
21769;SDS011;11046;49.558;8.674;2023-01-10T04:58:03;9.20;;;3.70;;
21769;SDS011;11046;49.558;8.674;2023-01-10T05:01:08;10.60;;;3.30;;
21769;SDS011;11046;49.558;8.674;2023-01-10T05:04:13;10.43;;;3.60;;
21769;SDS011;11046;49.558;8.674;2023-01-10T05:07:13;12.83;;;3.33;;
21769;SDS011;11046;49.558;8.674;2023-01-10T05:10:14;11.40;;;3.70;;
21769;SDS011;11046;49.558;8.674;2023-01-10T05:13:15;18.00;;;4.30;;
21769;SDS011;11046;49.558;8.674;2023-01-10T05:16:15;10.97;;;4.10;;
21769;SDS011;11046;49.558;8.674;2023-01-10T05:19:16;11.37;;;4.30;;
21769;SDS011;11046;49.558;8.674;2023-01-10T05:22:17;12.83;;;4.17;;
21769;SDS011;11046;49.558;8.674;2023-01-10T05:25:17;11.53;;;3.93;;
21769;SDS011;11046;49.558;8.674;2023-01-10T05:28:18;13.00;;;4.33;;
21769;SDS011;11046;49.558;8.674;2023-01-10T05:31:18;8.47;;;3.50;;
21769;SDS011;11046;49.558;8.674;2023-01-10T05:34:19;11.30;;;3.47;;
21769;SDS011;11046;49.558;8.674;2023-01-10T05:37:20;11.07;;;3.20;;
21769;SDS011;11046;49.558;8.674;2023-01-10T05:40:20;10.23;;;3.33;;
21769;SDS011;11046;49.558;8.674;2023-01-10T05:43:21;13.30;;;3.10;;
21769;SDS011;11046;49.558;8.674;2023-01-10T05:46:22;13.07;;;3.47;;
21769;SDS011;11046;49.558;8.674;2023-01-10T05:49:23;12.33;;;3.30;;
21769;SDS011;11046;49.558;8.674;2023-01-10T05:52:24;8.00;;;2.90;;
21769;SDS011;11046;49.558;8.674;2023-01-10T05:55:24;6.80;;;3.07;;
21769;SDS011;11046;49.558;8.674;2023-01-10T05:58:25;8.73;;;2.97;;
21769;SDS011;11046;49.558;8.674;2023-01-10T06:01:26;8.27;;;3.00;;
21769;SDS011;11046;49.558;8.674;2023-01-10T06:04:27;11.87;;;4.00;;
21769;SDS011;11046;49.558;8.674;2023-01-10T06:07:28;10.67;;;3.20;;
21769;SDS011;11046;49.558;8.674;2023-01-10T06:10:28;10.00;;;3.40;;
21769;SDS011;11046;49.558;8.674;2023-01-10T06:13:29;11.03;;;3.47;;
21769;SDS011;11046;49.558;8.674;2023-01-10T06:16:29;13.97;;;3.63;;
21769;SDS011;11046;49.558;8.674;2023-01-10T06:19:30;10.77;;;3.57;;
21769;SDS011;11046;49.558;8.674;2023-01-10T06:22:30;11.37;;;3.87;;
21769;SDS011;11046;49.558;8.674;2023-01-10T06:25:32;14.03;;;5.17;;
21769;SDS011;11046;49.558;8.674;2023-01-10T06:28:35;18.93;;;5.97;;
21769;SDS011;11046;49.558;8.674;2023-01-10T06:31:36;10.27;;;3.60;;
21769;SDS011;11046;49.558;8.674;2023-01-10T06:34:37;10.87;;;3.40;;
21769;SDS011;11046;49.558;8.674;2023-01-10T06:37:37;14.47;;;3.70;;
21769;SDS011;11046;49.558;8.674;2023-01-10T06:40:38;11.40;;;3.30;;
21769;SDS011;11046;49.558;8.674;2023-01-10T06:43:39;15.47;;;4.20;;
21769;SDS011;11046;49.558;8.674;2023-01-10T06:46:40;15.63;;;4.13;;
21769;SDS011;11046;49.558;8.674;2023-01-10T06:49:40;16.57;;;5.73;;
21769;SDS011;11046;49.558;8.674;2023-01-10T06:52:41;13.83;;;3.70;;
21769;SDS011;11046;49.558;8.674;2023-01-10T06:55:41;12.73;;;4.20;;
21769;SDS011;11046;49.558;8.674;2023-01-10T06:58:42;18.60;;;4.07;;
21769;SDS011;11046;49.558;8.674;2023-01-10T07:01:42;15.07;;;4.00;;
21769;SDS011;11046;49.558;8.674;2023-01-10T07:04:43;14.50;;;4.43;;
21769;SDS011;11046;49.558;8.674;2023-01-10T07:07:44;14.27;;;4.10;;
21769;SDS011;11046;49.558;8.674;2023-01-10T07:10:44;16.10;;;4.97;;
21769;SDS011;11046;49.558;8.674;2023-01-10T07:13:45;11.87;;;3.70;;
21769;SDS011;11046;49.558;8.674;2023-01-10T07:16:45;13.63;;;4.03;;
21769;SDS011;11046;49.558;8.674;2023-01-10T07:19:46;20.77;;;3.93;;
21769;SDS011;11046;49.558;8.674;2023-01-10T07:22:56;12.77;;;4.20;;
21769;SDS011;11046;49.558;8.674;2023-01-10T07:26:02;11.97;;;4.40;;
21769;SDS011;11046;49.558;8.674;2023-01-10T07:29:04;16.23;;;4.70;;
21769;SDS011;11046;49.558;8.674;2023-01-10T07:32:04;17.10;;;4.27;;
21769;SDS011;11046;49.558;8.674;2023-01-10T07:35:05;14.87;;;4.17;;
21769;SDS011;11046;49.558;8.674;2023-01-10T07:38:06;13.30;;;3.53;;
21769;SDS011;11046;49.558;8.674;2023-01-10T07:41:08;14.70;;;3.60;;
21769;SDS011;11046;49.558;8.674;2023-01-10T07:44:08;15.33;;;3.70;;
21769;SDS011;11046;49.558;8.674;2023-01-10T07:47:09;14.93;;;3.37;;
21769;SDS011;11046;49.558;8.674;2023-01-10T07:50:10;13.13;;;3.00;;
21769;SDS011;11046;49.558;8.674;2023-01-10T07:53:10;9.50;;;3.20;;
21769;SDS011;11046;49.558;8.674;2023-01-10T07:56:11;12.33;;;3.73;;
21769;SDS011;11046;49.558;8.674;2023-01-10T07:59:14;15.47;;;4.17;;
21769;SDS011;11046;49.558;8.674;2023-01-10T08:02:15;17.57;;;3.60;;
21769;SDS011;11046;49.558;8.674;2023-01-10T08:05:16;15.17;;;4.20;;
21769;SDS011;11046;49.558;8.674;2023-01-10T08:08:16;13.03;;;3.40;;
21769;SDS011;11046;49.558;8.674;2023-01-10T08:11:17;17.80;;;3.87;;
21769;SDS011;11046;49.558;8.674;2023-01-10T08:14:17;22.30;;;4.30;;
21769;SDS011;11046;49.558;8.674;2023-01-10T08:17:18;18.10;;;3.70;;
21769;SDS011;11046;49.558;8.674;2023-01-10T08:20:19;17.03;;;3.50;;
21769;SDS011;11046;49.558;8.674;2023-01-10T08:23:20;15.10;;;3.27;;
21769;SDS011;11046;49.558;8.674;2023-01-10T08:26:21;17.80;;;4.17;;
21769;SDS011;11046;49.558;8.674;2023-01-10T08:29:21;11.10;;;3.20;;
21769;SDS011;11046;49.558;8.674;2023-01-10T08:32:22;13.87;;;4.03;;
21769;SDS011;11046;49.558;8.674;2023-01-10T08:35:22;11.90;;;3.10;;
21769;SDS011;11046;49.558;8.674;2023-01-10T08:38:23;12.80;;;3.57;;
21769;SDS011;11046;49.558;8.674;2023-01-10T08:41:24;19.17;;;4.23;;
21769;SDS011;11046;49.558;8.674;2023-01-10T08:44:24;13.27;;;3.40;;
21769;SDS011;11046;49.558;8.674;2023-01-10T08:47:26;12.97;;;3.47;;
21769;SDS011;11046;49.558;8.674;2023-01-10T08:50:27;14.87;;;3.83;;
21769;SDS011;11046;49.558;8.674;2023-01-10T08:53:28;13.77;;;4.27;;
21769;SDS011;11046;49.558;8.674;2023-01-10T08:56:30;11.83;;;3.83;;
21769;SDS011;11046;49.558;8.674;2023-01-10T08:59:31;20.80;;;3.53;;
21769;SDS011;11046;49.558;8.674;2023-01-10T09:02:32;19.03;;;4.47;;
21769;SDS011;11046;49.558;8.674;2023-01-10T09:05:33;16.80;;;3.40;;
21769;SDS011;11046;49.558;8.674;2023-01-10T09:08:35;19.27;;;3.83;;
21769;SDS011;11046;49.558;8.674;2023-01-10T09:11:36;12.33;;;3.07;;
21769;SDS011;11046;49.558;8.674;2023-01-10T09:14:36;12.83;;;3.40;;
21769;SDS011;11046;49.558;8.674;2023-01-10T09:17:37;15.17;;;3.80;;
21769;SDS011;11046;49.558;8.674;2023-01-10T09:20:38;14.97;;;4.27;;
21769;SDS011;11046;49.558;8.674;2023-01-10T09:23:40;16.70;;;3.33;;
21769;SDS011;11046;49.558;8.674;2023-01-10T09:26:42;13.10;;;3.10;;
21769;SDS011;11046;49.558;8.674;2023-01-10T09:29:43;18.27;;;3.80;;
21769;SDS011;11046;49.558;8.674;2023-01-10T09:32:48;18.50;;;3.67;;
21769;SDS011;11046;49.558;8.674;2023-01-10T09:35:50;15.97;;;3.27;;
21769;SDS011;11046;49.558;8.674;2023-01-10T09:38:50;16.00;;;3.50;;
21769;SDS011;11046;49.558;8.674;2023-01-10T09:49:05;19.87;;;3.40;;
21769;SDS011;11046;49.558;8.674;2023-01-10T09:52:12;17.53;;;3.73;;
21769;SDS011;11046;49.558;8.674;2023-01-10T09:55:29;16.13;;;3.53;;
21769;SDS011;11046;49.558;8.674;2023-01-10T09:58:35;14.20;;;3.23;;
21769;SDS011;11046;49.558;8.674;2023-01-10T10:01:37;21.97;;;3.17;;
21769;SDS011;11046;49.558;8.674;2023-01-10T10:04:38;13.13;;;3.47;;
21769;SDS011;11046;49.558;8.674;2023-01-10T10:07:40;20.13;;;3.80;;
21769;SDS011;11046;49.558;8.674;2023-01-10T10:10:57;12.93;;;3.17;;
21769;SDS011;11046;49.558;8.674;2023-01-10T10:14:39;12.47;;;3.33;;
21769;SDS011;11046;49.558;8.674;2023-01-10T10:18:03;13.43;;;3.00;;
21769;SDS011;11046;49.558;8.674;2023-01-10T10:24:57;13.67;;;4.33;;
21769;SDS011;11046;49.558;8.674;2023-01-10T10:34:52;18.63;;;3.00;;
21769;SDS011;11046;49.558;8.674;2023-01-10T10:38:03;15.77;;;3.90;;
21769;SDS011;11046;49.558;8.674;2023-01-10T10:41:16;18.97;;;3.90;;
21769;SDS011;11046;49.558;8.674;2023-01-10T10:44:33;16.47;;;4.37;;
21769;SDS011;11046;49.558;8.674;2023-01-10T10:47:41;17.00;;;3.70;;
21769;SDS011;11046;49.558;8.674;2023-01-10T10:53:57;16.00;;;3.53;;
21769;SDS011;11046;49.558;8.674;2023-01-10T10:56:58;14.13;;;3.30;;
21769;SDS011;11046;49.558;8.674;2023-01-10T11:00:01;15.83;;;3.53;;
21769;SDS011;11046;49.558;8.674;2023-01-10T11:03:09;14.00;;;3.80;;
21769;SDS011;11046;49.558;8.674;2023-01-10T11:06:22;15.63;;;4.60;;
21769;SDS011;11046;49.558;8.674;2023-01-10T11:09:27;20.30;;;3.67;;
21769;SDS011;11046;49.558;8.674;2023-01-10T11:12:43;19.17;;;3.60;;
21769;SDS011;11046;49.558;8.674;2023-01-10T11:15:50;21.03;;;3.90;;
21769;SDS011;11046;49.558;8.674;2023-01-10T11:22:29;13.23;;;3.80;;
21769;SDS011;11046;49.558;8.674;2023-01-10T11:25:37;14.60;;;3.50;;
21769;SDS011;11046;49.558;8.674;2023-01-10T11:28:46;17.90;;;3.30;;
21769;SDS011;11046;49.558;8.674;2023-01-10T11:31:48;15.53;;;3.40;;
21769;SDS011;11046;49.558;8.674;2023-01-10T11:34:54;15.80;;;3.30;;
21769;SDS011;11046;49.558;8.674;2023-01-10T11:38:04;19.47;;;4.03;;
21769;SDS011;11046;49.558;8.674;2023-01-10T11:41:28;16.77;;;3.57;;
21769;SDS011;11046;49.558;8.674;2023-01-10T11:44:33;24.53;;;4.57;;
21769;SDS011;11046;49.558;8.674;2023-01-10T11:47:34;17.07;;;5.77;;
21769;SDS011;11046;49.558;8.674;2023-01-10T11:50:40;14.87;;;4.00;;
21769;SDS011;11046;49.558;8.674;2023-01-10T11:53:44;17.17;;;3.67;;
21769;SDS011;11046;49.558;8.674;2023-01-10T11:56:50;17.13;;;3.93;;
21769;SDS011;11046;49.558;8.674;2023-01-10T11:59:57;22.93;;;4.30;;
21769;SDS011;11046;49.558;8.674;2023-01-10T12:03:13;21.00;;;5.10;;
21769;SDS011;11046;49.558;8.674;2023-01-10T12:06:16;14.27;;;4.13;;
21769;SDS011;11046;49.558;8.674;2023-01-10T12:12:38;22.90;;;4.60;;
21769;SDS011;11046;49.558;8.674;2023-01-10T12:15:51;17.77;;;4.30;;
21769;SDS011;11046;49.558;8.674;2023-01-10T12:19:11;22.80;;;3.77;;
21769;SDS011;11046;49.558;8.674;2023-01-10T12:22:13;18.37;;;4.93;;
21769;SDS011;11046;49.558;8.674;2023-01-10T12:25:18;19.77;;;4.33;;
21769;SDS011;11046;49.558;8.674;2023-01-10T12:28:22;20.93;;;4.80;;
21769;SDS011;11046;49.558;8.674;2023-01-10T12:31:26;22.77;;;6.03;;
21769;SDS011;11046;49.558;8.674;2023-01-10T12:34:40;31.13;;;7.13;;
21769;SDS011;11046;49.558;8.674;2023-01-10T12:37:56;17.67;;;4.70;;
21769;SDS011;11046;49.558;8.674;2023-01-10T12:41:07;28.63;;;4.23;;
21769;SDS011;11046;49.558;8.674;2023-01-10T12:44:35;18.67;;;4.43;;
21769;SDS011;11046;49.558;8.674;2023-01-10T12:47:53;16.70;;;4.50;;
21769;SDS011;11046;49.558;8.674;2023-01-10T12:51:16;14.97;;;3.47;;
21769;SDS011;11046;49.558;8.674;2023-01-10T12:54:22;24.87;;;5.13;;
21769;SDS011;11046;49.558;8.674;2023-01-10T12:57:27;17.97;;;4.57;;
21769;SDS011;11046;49.558;8.674;2023-01-10T13:00:32;26.97;;;4.40;;
21769;SDS011;11046;49.558;8.674;2023-01-10T13:03:36;18.83;;;4.13;;
21769;SDS011;11046;49.558;8.674;2023-01-10T13:06:38;23.37;;;5.40;;
21769;SDS011;11046;49.558;8.674;2023-01-10T13:09:41;15.70;;;4.67;;
21769;SDS011;11046;49.558;8.674;2023-01-10T13:12:44;20.90;;;4.20;;
21769;SDS011;11046;49.558;8.674;2023-01-10T13:15:52;17.50;;;5.17;;
21769;SDS011;11046;49.558;8.674;2023-01-10T13:22:22;17.30;;;3.47;;
21769;SDS011;11046;49.558;8.674;2023-01-10T13:25:30;21.47;;;4.63;;
21769;SDS011;11046;49.558;8.674;2023-01-10T13:28:38;13.20;;;4.40;;
21769;SDS011;11046;49.558;8.674;2023-01-10T13:31:40;21.33;;;4.23;;
21769;SDS011;11046;49.558;8.674;2023-01-10T13:34:41;18.67;;;4.30;;
21769;SDS011;11046;49.558;8.674;2023-01-10T13:37:42;17.10;;;3.47;;
21769;SDS011;11046;49.558;8.674;2023-01-10T13:41:00;28.37;;;7.00;;
21769;SDS011;11046;49.558;8.674;2023-01-10T13:44:07;18.00;;;3.90;;
21769;SDS011;11046;49.558;8.674;2023-01-10T13:47:08;22.57;;;4.07;;
21769;SDS011;11046;49.558;8.674;2023-01-10T13:51:11;19.53;;;3.70;;
21769;SDS011;11046;49.558;8.674;2023-01-10T13:53:50;20.83;;;3.93;;
21769;SDS011;11046;49.558;8.674;2023-01-10T14:00:54;13.97;;;3.37;;
21769;SDS011;11046;49.558;8.674;2023-01-10T14:04:27;19.07;;;3.10;;
21769;SDS011;11046;49.558;8.674;2023-01-10T14:07:30;17.93;;;3.97;;
21769;SDS011;11046;49.558;8.674;2023-01-10T14:10:34;20.03;;;3.93;;
21769;SDS011;11046;49.558;8.674;2023-01-10T14:13:35;18.47;;;3.70;;
21769;SDS011;11046;49.558;8.674;2023-01-10T14:16:37;17.23;;;3.53;;
21769;SDS011;11046;49.558;8.674;2023-01-10T14:19:40;15.30;;;3.10;;
21769;SDS011;11046;49.558;8.674;2023-01-10T14:23:03;13.30;;;3.30;;
21769;SDS011;11046;49.558;8.674;2023-01-10T14:26:07;21.60;;;3.43;;
21769;SDS011;11046;49.558;8.674;2023-01-10T14:29:17;20.70;;;4.10;;
21769;SDS011;11046;49.558;8.674;2023-01-10T14:32:25;16.57;;;3.67;;
21769;SDS011;11046;49.558;8.674;2023-01-10T14:35:41;22.37;;;3.67;;
21769;SDS011;11046;49.558;8.674;2023-01-10T14:38:44;17.33;;;3.73;;
21769;SDS011;11046;49.558;8.674;2023-01-10T14:41:48;18.00;;;4.00;;
21769;SDS011;11046;49.558;8.674;2023-01-10T14:44:58;15.77;;;3.17;;
21769;SDS011;11046;49.558;8.674;2023-01-10T14:48:21;17.47;;;3.60;;
21769;SDS011;11046;49.558;8.674;2023-01-10T14:51:29;17.37;;;4.03;;
21769;SDS011;11046;49.558;8.674;2023-01-10T14:54:30;18.37;;;4.73;;
21769;SDS011;11046;49.558;8.674;2023-01-10T14:57:31;14.83;;;3.97;;
21769;SDS011;11046;49.558;8.674;2023-01-10T15:00:32;11.80;;;2.97;;
21769;SDS011;11046;49.558;8.674;2023-01-10T15:03:46;14.67;;;3.43;;
21769;SDS011;11046;49.558;8.674;2023-01-10T15:06:57;15.80;;;3.87;;
21769;SDS011;11046;49.558;8.674;2023-01-10T15:10:02;15.87;;;3.23;;
21769;SDS011;11046;49.558;8.674;2023-01-10T15:13:17;16.80;;;3.47;;
21769;SDS011;11046;49.558;8.674;2023-01-10T15:16:21;15.80;;;4.10;;
21769;SDS011;11046;49.558;8.674;2023-01-10T15:19:23;14.47;;;4.10;;
21769;SDS011;11046;49.558;8.674;2023-01-10T15:22:31;14.00;;;4.10;;
21769;SDS011;11046;49.558;8.674;2023-01-10T15:25:34;12.30;;;3.83;;
21769;SDS011;11046;49.558;8.674;2023-01-10T15:28:37;26.57;;;5.90;;
21769;SDS011;11046;49.558;8.674;2023-01-10T15:31:38;12.00;;;3.97;;
21769;SDS011;11046;49.558;8.674;2023-01-10T15:34:40;12.77;;;3.60;;
21769;SDS011;11046;49.558;8.674;2023-01-10T15:37:51;19.93;;;3.83;;
21769;SDS011;11046;49.558;8.674;2023-01-10T15:41:01;16.77;;;5.93;;
21769;SDS011;11046;49.558;8.674;2023-01-10T15:47:37;12.47;;;4.20;;
21769;SDS011;11046;49.558;8.674;2023-01-10T15:50:54;16.33;;;4.90;;
21769;SDS011;11046;49.558;8.674;2023-01-10T15:54:02;18.23;;;3.70;;
21769;SDS011;11046;49.558;8.674;2023-01-10T15:57:23;17.33;;;4.07;;
21769;SDS011;11046;49.558;8.674;2023-01-10T16:00:31;15.93;;;3.37;;
21769;SDS011;11046;49.558;8.674;2023-01-10T16:03:33;19.87;;;6.03;;
21769;SDS011;11046;49.558;8.674;2023-01-10T16:06:42;15.63;;;4.43;;
21769;SDS011;11046;49.558;8.674;2023-01-10T16:09:47;6.97;;;3.27;;
21769;SDS011;11046;49.558;8.674;2023-01-10T16:12:50;14.03;;;4.07;;
21769;SDS011;11046;49.558;8.674;2023-01-10T16:16:14;14.30;;;4.07;;
21769;SDS011;11046;49.558;8.674;2023-01-10T16:19:17;9.43;;;2.80;;
21769;SDS011;11046;49.558;8.674;2023-01-10T16:22:17;14.33;;;4.43;;
21769;SDS011;11046;49.558;8.674;2023-01-10T16:25:19;9.97;;;2.80;;
21769;SDS011;11046;49.558;8.674;2023-01-10T16:28:31;8.67;;;3.00;;
21769;SDS011;11046;49.558;8.674;2023-01-10T16:31:35;12.40;;;3.20;;
21769;SDS011;11046;49.558;8.674;2023-01-10T16:34:35;12.73;;;3.10;;
21769;SDS011;11046;49.558;8.674;2023-01-10T16:37:36;9.20;;;2.90;;
21769;SDS011;11046;49.558;8.674;2023-01-10T16:40:37;10.13;;;3.50;;
21769;SDS011;11046;49.558;8.674;2023-01-10T16:43:42;12.03;;;3.47;;
21769;SDS011;11046;49.558;8.674;2023-01-10T16:46:46;10.83;;;2.63;;
21769;SDS011;11046;49.558;8.674;2023-01-10T16:49:53;6.63;;;2.40;;
21769;SDS011;11046;49.558;8.674;2023-01-10T16:52:53;9.10;;;3.07;;
21769;SDS011;11046;49.558;8.674;2023-01-10T16:55:56;11.23;;;2.80;;
21769;SDS011;11046;49.558;8.674;2023-01-10T16:58:57;11.77;;;2.30;;
21769;SDS011;11046;49.558;8.674;2023-01-10T17:01:58;11.77;;;2.30;;
21769;SDS011;11046;49.558;8.674;2023-01-10T17:04:58;7.43;;;2.50;;
21769;SDS011;11046;49.558;8.674;2023-01-10T17:07:59;7.17;;;2.37;;
21769;SDS011;11046;49.558;8.674;2023-01-10T17:11:01;8.23;;;2.17;;
21769;SDS011;11046;49.558;8.674;2023-01-10T17:14:04;11.07;;;2.70;;
21769;SDS011;11046;49.558;8.674;2023-01-10T17:17:05;9.80;;;2.87;;
21769;SDS011;11046;49.558;8.674;2023-01-10T17:20:05;11.93;;;3.00;;
21769;SDS011;11046;49.558;8.674;2023-01-10T17:23:06;12.63;;;2.57;;
21769;SDS011;11046;49.558;8.674;2023-01-10T17:26:10;7.77;;;2.03;;
21769;SDS011;11046;49.558;8.674;2023-01-10T17:29:12;7.13;;;2.80;;
21769;SDS011;11046;49.558;8.674;2023-01-10T17:32:13;8.17;;;2.03;;
21769;SDS011;11046;49.558;8.674;2023-01-10T17:35:13;5.93;;;2.20;;
21769;SDS011;11046;49.558;8.674;2023-01-10T17:38:15;10.43;;;3.00;;
21769;SDS011;11046;49.558;8.674;2023-01-10T17:41:16;11.33;;;2.00;;
21769;SDS011;11046;49.558;8.674;2023-01-10T17:44:17;9.80;;;2.10;;
21769;SDS011;11046;49.558;8.674;2023-01-10T17:47:17;13.47;;;3.03;;
21769;SDS011;11046;49.558;8.674;2023-01-10T17:50:20;8.93;;;2.53;;
21769;SDS011;11046;49.558;8.674;2023-01-10T17:53:21;6.90;;;2.10;;
21769;SDS011;11046;49.558;8.674;2023-01-10T17:56:21;10.87;;;2.07;;
21769;SDS011;11046;49.558;8.674;2023-01-10T17:59:23;9.27;;;2.53;;
21769;SDS011;11046;49.558;8.674;2023-01-10T18:02:29;5.53;;;2.10;;
21769;SDS011;11046;49.558;8.674;2023-01-10T18:05:32;8.23;;;2.20;;
21769;SDS011;11046;49.558;8.674;2023-01-10T18:08:34;8.80;;;2.27;;
21769;SDS011;11046;49.558;8.674;2023-01-10T18:11:35;10.23;;;2.20;;
21769;SDS011;11046;49.558;8.674;2023-01-10T18:14:38;11.03;;;1.90;;
21769;SDS011;11046;49.558;8.674;2023-01-10T18:17:39;10.83;;;2.10;;
21769;SDS011;11046;49.558;8.674;2023-01-10T18:20:40;10.57;;;2.70;;
21769;SDS011;11046;49.558;8.674;2023-01-10T18:23:41;8.57;;;2.00;;
21769;SDS011;11046;49.558;8.674;2023-01-10T18:26:42;12.20;;;2.33;;
21769;SDS011;11046;49.558;8.674;2023-01-10T18:29:45;12.20;;;2.63;;
21769;SDS011;11046;49.558;8.674;2023-01-10T18:32:49;12.53;;;2.47;;
21769;SDS011;11046;49.558;8.674;2023-01-10T18:35:51;13.00;;;2.33;;
21769;SDS011;11046;49.558;8.674;2023-01-10T18:38:56;8.03;;;2.20;;
21769;SDS011;11046;49.558;8.674;2023-01-10T18:42:07;6.43;;;2.47;;
21769;SDS011;11046;49.558;8.674;2023-01-10T18:45:11;8.90;;;3.10;;
21769;SDS011;11046;49.558;8.674;2023-01-10T18:48:11;8.23;;;2.57;;
21769;SDS011;11046;49.558;8.674;2023-01-10T18:51:15;14.37;;;2.57;;
21769;SDS011;11046;49.558;8.674;2023-01-10T18:54:17;8.57;;;2.80;;
21769;SDS011;11046;49.558;8.674;2023-01-10T18:57:21;9.30;;;2.53;;
21769;SDS011;11046;49.558;8.674;2023-01-10T19:00:23;8.23;;;2.43;;
21769;SDS011;11046;49.558;8.674;2023-01-10T19:03:23;9.27;;;2.53;;
21769;SDS011;11046;49.558;8.674;2023-01-10T19:06:24;8.87;;;2.47;;
21769;SDS011;11046;49.558;8.674;2023-01-10T19:09:28;9.20;;;3.00;;
21769;SDS011;11046;49.558;8.674;2023-01-10T19:12:28;8.97;;;2.90;;
21769;SDS011;11046;49.558;8.674;2023-01-10T19:15:29;11.87;;;3.20;;
21769;SDS011;11046;49.558;8.674;2023-01-10T19:18:30;10.67;;;3.03;;
21769;SDS011;11046;49.558;8.674;2023-01-10T19:21:31;7.17;;;2.43;;
21769;SDS011;11046;49.558;8.674;2023-01-10T19:24:32;10.37;;;2.40;;